Time;durP1;ratioP1;P1;durP2;ratioP2;P2;SDS_P1;SDS_P2;PMS_P1;PMS_P2;Temp;Humidity;BMP_temperature;BMP_pressure;BME280_temperature;BME280_humidity;BME280_pressure;Samples;Min_cycle;Max_cycle;Signal;HPM_P1;HPM_P2
2023/10/28 00:00:13;;;;;;;21.77;14.73;;;10.40;99.90;;;9.69;100.00;98950.59;5034710;28;20233;-72
2023/10/28 00:02:43;;;;;;;22.20;13.77;;;10.40;99.90;;;9.72;100.00;98953.94;5034708;28;20304;-72
2023/10/28 00:05:11;;;;;;;18.60;14.10;;;10.40;99.90;;;9.72;100.00;98956.59;5034771;28;20235;-72
2023/10/28 00:07:41;;;;;;;19.37;13.23;;;10.40;99.90;;;9.74;100.00;98962.56;5034612;28;20210;-72
2023/10/28 00:10:10;;;;;;;19.70;13.50;;;10.40;99.90;;;9.75;100.00;98965.03;5034523;28;20218;-72
2023/10/28 00:12:38;;;;;;;20.20;14.33;;;10.40;99.90;;;9.74;100.00;98967.91;5034231;28;20254;-72
2023/10/28 00:15:08;;;;;;;23.60;15.67;;;10.40;99.90;;;9.73;100.00;98971.59;5034307;28;20318;-72
2023/10/28 00:17:37;;;;;;;22.67;15.37;;;10.40;99.90;;;9.69;100.00;98977.31;5034105;28;20756;-72
2023/10/28 00:20:08;;;;;;;24.83;15.30;;;10.40;99.90;;;9.72;100.00;98970.78;5034039;28;20207;-72
2023/10/28 00:22:37;;;;;;;19.27;13.77;;;10.40;99.90;;;9.73;100.00;98971.59;5034360;28;20187;-72
2023/10/28 00:25:06;;;;;;;20.43;13.43;;;10.40;99.90;;;9.70;100.00;98978.16;5034205;28;20229;-72
2023/10/28 00:27:34;;;;;;;19.50;13.80;;;10.40;99.90;;;9.71;100.00;98969.13;5033884;28;20681;-72
2023/10/28 00:30:03;;;;;;;17.87;13.40;;;10.40;99.90;;;9.70;100.00;98975.47;5033475;28;20264;-72
2023/10/28 00:32:32;;;;;;;20.87;13.97;;;10.40;99.90;;;9.73;100.00;98976.94;5034335;28;20207;-72
2023/10/28 00:35:00;;;;;;;18.80;14.00;;;10.40;99.90;;;9.74;100.00;98978.59;5034028;28;20207;-72
2023/10/28 00:37:30;;;;;;;19.83;13.77;;;10.40;99.90;;;9.75;100.00;98982.91;5033950;28;20235;-72
2023/10/28 00:39:58;;;;;;;18.60;13.20;;;10.40;99.90;;;9.74;100.00;98967.91;5033988;28;20237;-72
2023/10/28 00:42:27;;;;;;;20.27;14.20;;;10.40;99.90;;;9.77;100.00;98972.84;5033958;28;20210;-72
2023/10/28 00:44:55;;;;;;;22.77;15.10;;;10.40;99.90;;;9.76;100.00;98976.56;5033875;28;20301;-72
2023/10/28 00:47:24;;;;;;;20.93;14.50;;;10.40;99.90;;;9.76;100.00;98976.56;5033882;28;20294;-72
2023/10/28 00:49:52;;;;;;;22.53;14.63;;;10.40;99.90;;;9.76;100.00;98976.56;5033833;28;20252;-72
2023/10/28 00:52:21;;;;;;;22.40;14.73;;;10.40;99.90;;;9.77;100.00;98986.22;5033760;28;20210;-72
2023/10/28 00:54:54;;;;;;;18.60;13.67;;;10.40;99.90;;;9.79;100.00;98984.19;5033702;28;20206;-72
2023/10/28 00:57:23;;;;;;;22.43;15.10;;;10.40;99.90;;;9.77;100.00;98988.88;5033704;28;20303;-72
2023/10/28 00:59:51;;;;;;;20.27;14.60;;;10.40;99.90;;;9.78;100.00;98991.38;5033695;28;20293;-72
2023/10/28 01:02:19;;;;;;;24.07;15.50;;;10.40;99.90;;;9.78;100.00;98987.88;5033705;28;20217;-72
2023/10/28 01:04:48;;;;;;;26.47;16.03;;;10.40;99.90;;;9.76;100.00;98977.34;5033234;28;20677;-72
2023/10/28 01:07:16;;;;;;;20.07;13.67;;;10.40;99.90;;;9.75;100.00;98972.22;5033617;28;20207;-72
2023/10/28 01:09:48;;;;;;;20.50;14.73;;;10.40;99.90;;;9.77;100.00;98971.00;5033287;28;20669;-72
2023/10/28 01:12:17;;;;;;;20.17;14.50;;;10.40;99.90;;;9.74;100.00;98968.72;5033122;28;20593;-72
2023/10/28 01:14:45;;;;;;;21.20;15.00;;;10.40;99.90;;;9.71;100.00;98979.00;5033435;28;20289;-72
2023/10/28 01:17:14;;;;;;;23.87;16.03;;;10.40;99.90;;;9.68;100.00;98981.03;5033386;28;20226;-72
2023/10/28 01:19:42;;;;;;;20.97;14.40;;;10.30;99.90;;;9.71;100.00;98985.16;5033471;28;20297;-72
2023/10/28 01:22:12;;;;;;;20.93;14.40;;;10.30;99.90;;;9.73;100.00;98987.63;5033476;28;20218;-72
2023/10/28 01:24:40;;;;;;;24.23;15.43;;;10.40;99.90;;;9.68;100.00;98997.06;5033403;28;20285;-72
2023/10/28 01:27:09;;;;;;;23.37;15.87;;;10.30;99.90;;;9.70;100.00;98994.19;5033423;28;20227;-72
2023/10/28 01:29:38;;;;;;;22.40;15.47;;;10.30;99.90;;;9.70;100.00;98986.16;5033390;28;20211;-72
2023/10/28 01:32:06;;;;;;;22.27;15.67;;;10.40;99.90;;;9.67;100.00;98990.06;5033347;28;20237;-72
2023/10/28 01:34:49;;;;;;;27.47;16.43;;;10.30;99.90;;;9.67;100.00;98991.91;5033365;28;20211;-72
2023/10/28 01:37:19;;;;;;;23.60;16.33;;;10.30;99.90;;;9.66;100.00;98993.75;5033288;28;20256;-72
2023/10/28 01:39:50;;;;;;;22.47;16.23;;;10.30;99.90;;;9.65;100.00;98994.81;5034125;28;20203;-72
2023/10/28 01:42:19;;;;;;;24.90;16.50;;;10.30;99.90;;;9.67;100.00;98990.06;5036171;28;20602;-72
2023/10/28 01:44:48;;;;;;;24.73;16.20;;;10.30;99.90;;;9.67;100.00;98994.59;5037200;28;20218;-72
2023/10/28 01:47:16;;;;;;;23.17;15.67;;;10.30;99.90;;;9.69;100.00;98992.56;5037200;28;20203;-72
2023/10/28 01:49:45;;;;;;;20.80;14.57;;;10.30;99.90;;;9.71;100.00;98995.03;5036851;28;20568;-72
2023/10/28 01:52:14;;;;;;;23.10;16.50;;;10.40;99.90;;;9.71;100.00;98995.03;5036811;28;20650;-72
2023/10/28 01:54:43;;;;;;;22.97;15.80;;;10.40;99.90;;;9.72;100.00;98996.69;5037090;28;20305;-72
2023/10/28 01:57:11;;;;;;;23.23;15.50;;;10.40;99.90;;;9.73;100.00;98995.63;5036667;28;20730;-72
2023/10/28 01:59:40;;;;;;;20.33;14.47;;;10.40;99.90;;;9.74;100.00;98994.63;5036678;28;20740;-72
2023/10/28 02:02:08;;;;;;;23.37;15.27;;;10.40;99.90;;;9.74;100.00;99000.78;5036672;28;20672;-72
2023/10/28 02:04:37;;;;;;;22.70;16.30;;;10.40;99.90;;;9.75;100.00;98996.28;5036571;28;20211;-72
2023/10/28 02:07:06;;;;;;;24.57;16.10;;;10.40;99.90;;;9.74;100.00;99008.81;5036796;28;20272;-72
2023/10/28 02:09:34;;;;;;;25.00;15.87;;;10.40;99.90;;;9.73;100.00;99000.97;5037032;28;20211;-72
2023/10/28 02:12:05;;;;;;;23.90;16.40;;;10.40;99.90;;;9.73;100.00;98992.97;5036589;28;20305;-72
2023/10/28 02:14:33;;;;;;;22.27;15.63;;;10.40;99.90;;;9.72;100.00;98986.00;5036735;28;20191;-72
2023/10/28 02:17:01;;;;;;;23.27;15.93;;;10.40;99.90;;;9.71;100.00;98985.16;5036555;28;20329;-72
2023/10/28 02:19:31;;;;;;;22.70;16.30;;;10.40;99.90;;;9.71;100.00;98987.00;5036617;28;20218;-72
2023/10/28 02:21:59;;;;;;;22.90;15.73;;;10.40;99.90;;;9.71;100.00;98989.69;5036594;28;20293;-72
2023/10/28 02:24:42;;;;;;;21.57;15.83;;;10.30;99.90;;;9.70;100.00;98991.53;5036576;28;20191;-72
2023/10/28 02:27:12;;;;;;;21.47;15.73;;;10.30;99.90;;;9.69;100.00;98990.69;5036186;28;20723;-72
2023/10/28 02:29:40;;;;;;;23.13;16.37;;;10.30;99.90;;;9.72;100.00;98991.34;5036452;28;20329;-72
2023/10/28 02:32:10;;;;;;;24.57;16.13;;;10.40;99.90;;;9.71;100.00;98995.03;5036349;28;20207;-72
2023/10/28 02:34:41;;;;;;;23.30;16.23;;;10.40;99.90;;;9.71;100.00;98995.03;5036357;28;20257;-72
2023/10/28 02:37:11;;;;;;;26.00;16.73;;;10.40;99.90;;;9.70;100.00;98991.53;5035928;28;20214;-72
2023/10/28 02:39:39;;;;;;;21.00;14.83;;;10.30;99.90;;;9.68;100.00;98997.06;5037381;28;20260;-72
2023/10/28 02:42:08;;;;;;;23.70;15.60;;;10.30;99.90;;;9.72;100.00;98996.69;5036240;28;20213;-72
2023/10/28 02:44:37;;;;;;;26.10;17.07;;;10.40;99.90;;;9.73;100.00;99000.97;5036151;28;20253;-72
2023/10/28 02:47:06;;;;;;;22.80;15.93;;;10.40;99.90;;;9.72;100.00;99002.03;5036071;28;20300;-72
2023/10/28 02:49:37;;;;;;;23.87;15.70;;;10.40;99.90;;;9.71;100.00;99009.22;5036046;28;20213;-72
2023/10/28 02:52:06;;;;;;;26.87;16.20;;;10.30;99.90;;;9.67;100.00;99006.09;5035487;28;20661;-72
2023/10/28 02:54:35;;;;;;;22.93;16.00;;;10.30;99.90;;;9.67;100.00;98999.94;5035627;28;20238;-72
2023/10/28 02:57:03;;;;;;;23.67;16.80;;;10.30;99.90;;;9.65;100.00;99002.81;5035783;28;20266;-72
2023/10/28 02:59:32;;;;;;;25.30;16.20;;;10.30;99.90;;;9.64;100.00;98993.16;5035911;28;20257;-72
2023/10/28 03:02:01;;;;;;;22.63;16.20;;;10.30;99.90;;;9.64;100.00;98993.16;5035891;28;20293;-72
2023/10/28 03:04:29;;;;;;;22.33;16.10;;;10.30;99.90;;;9.66;100.00;98993.75;5035827;28;20206;-72
2023/10/28 03:06:57;;;;;;;22.90;16.47;;;10.30;99.90;;;9.63;100.00;98999.50;5035707;28;20306;-72
2023/10/28 03:09:26;;;;;;;22.63;15.73;;;10.30;99.90;;;9.64;100.00;99003.84;5035692;28;20203;-72
2023/10/28 03:11:54;;;;;;;21.93;15.83;;;10.30;99.90;;;9.67;100.00;99000.75;5035420;28;20211;-72
2023/10/28 03:14:22;;;;;;;22.17;15.13;;;10.30;99.90;;;9.64;100.00;98995.81;5035677;28;20278;-72
2023/10/28 03:16:50;;;;;;;23.80;15.20;;;10.30;99.90;;;9.63;100.00;98998.66;5035139;28;20708;-72
2023/10/28 03:19:20;;;;;;;22.80;15.83;;;10.30;99.90;;;9.64;100.00;99011.84;5035221;28;20673;-72
2023/10/28 03:21:48;;;;;;;21.30;15.13;;;10.30;99.90;;;9.66;100.00;99008.97;5035509;28;20209;-72
2023/10/28 03:24:16;;;;;;;21.20;14.97;;;10.30;99.90;;;9.65;100.00;99008.16;5035446;28;20297;-72
2023/10/28 03:26:44;;;;;;;21.73;14.63;;;10.30;99.90;;;9.64;100.00;99011.84;5035051;28;20280;-72
2023/10/28 03:29:12;;;;;;;24.67;15.30;;;10.30;99.90;;;9.62;100.00;99002.38;5035407;28;20211;-72
2023/10/28 03:31:40;;;;;;;22.87;14.83;;;10.20;99.90;;;9.61;100.00;99000.72;5035319;28;20210;-72
2023/10/28 03:34:09;;;;;;;18.67;13.53;;;10.20;99.90;;;9.62;100.00;98997.84;5035268;28;20245;-72
2023/10/28 03:36:38;;;;;;;20.27;14.23;;;10.30;99.90;;;9.63;100.00;98999.50;5035155;28;20223;-72
2023/10/28 03:39:07;;;;;;;20.30;14.57;;;10.30;99.90;;;9.63;100.00;98994.16;5035110;28;20321;-72
2023/10/28 03:41:35;;;;;;;19.20;13.93;;;10.30;99.90;;;9.60;100.00;98997.22;5034790;28;20254;-72
2023/10/28 03:44:04;;;;;;;20.50;14.87;;;10.20;99.90;;;9.63;100.00;99007.50;5035073;28;20242;-72
2023/10/28 03:46:32;;;;;;;21.10;15.57;;;10.30;99.90;;;9.58;100.00;99001.13;5034973;28;20226;-72
2023/10/28 03:49:00;;;;;;;20.27;14.63;;;10.20;99.90;;;9.61;100.00;99001.56;5034964;28;20253;-72
2023/10/28 03:51:28;;;;;;;19.03;12.97;;;10.30;99.90;;;9.55;100.00;99002.34;5034615;28;20213;-72
2023/10/28 03:53:58;;;;;;;17.30;13.77;;;10.20;99.90;;;9.57;100.00;99000.28;5034877;28;20206;-72
2023/10/28 03:56:26;;;;;;;17.37;13.07;;;10.20;99.90;;;9.49;100.00;99003.09;5034737;28;20318;-72
2023/10/28 03:58:54;;;;;;;18.47;14.00;;;10.10;99.90;;;9.46;100.00;99003.50;5034384;28;20660;-72
2023/10/28 04:01:23;;;;;;;20.50;14.50;;;10.10;99.90;;;9.47;100.00;99005.16;5034702;28;20249;-72
2023/10/28 04:03:51;;;;;;;18.43;14.10;;;10.10;99.90;;;9.43;100.00;99008.41;5034284;28;20206;-72
2023/10/28 04:06:20;;;;;;;18.77;15.03;;;10.10;99.90;;;9.43;100.00;99013.75;5033985;28;20280;-72
2023/10/28 04:08:48;;;;;;;18.60;14.07;;;10.00;99.90;;;9.41;100.00;99011.28;5034595;28;20205;-72
2023/10/28 04:11:18;;;;;;;20.93;14.40;;;10.00;99.90;;;9.45;100.00;99017.88;5034500;28;20207;-73
2023/10/28 04:13:46;;;;;;;20.37;15.87;;;10.10;99.90;;;9.47;100.00;99015.00;5034150;28;20248;-73
2023/10/28 04:16:14;;;;;;;19.93;15.70;;;10.10;99.90;;;9.46;100.00;99016.84;5034411;28;20280;-73
2023/10/28 04:18:42;;;;;;;17.23;14.20;;;10.10;99.90;;;9.49;100.00;99019.13;5034323;28;20234;-73
2023/10/28 04:21:10;;;;;;;20.20;15.00;;;10.10;99.90;;;9.50;100.00;99012.78;5034366;28;20245;-73
2023/10/28 04:23:39;;;;;;;18.10;13.93;;;10.10;99.90;;;9.46;100.00;99019.53;5033997;28;20214;-73
2023/10/28 04:26:07;;;;;;;19.73;14.53;;;10.10;99.90;;;9.43;100.00;99019.91;5034192;28;20258;-73
2023/10/28 04:28:38;;;;;;;18.17;14.00;;;10.00;99.90;;;9.46;100.00;99011.50;5034171;28;20199;-72
2023/10/28 04:31:06;;;;;;;18.43;13.80;;;10.10;99.90;;;9.50;100.00;99023.47;5034210;28;20198;-72
2023/10/28 04:33:34;;;;;;;18.07;13.97;;;10.10;99.90;;;9.47;100.00;99021.19;5034164;28;20218;-72
2023/10/28 04:36:02;;;;;;;18.47;14.83;;;10.10;99.90;;;9.43;100.00;99019.91;5034017;28;20233;-72
2023/10/28 04:38:30;;;;;;;17.70;15.03;;;10.10;99.90;;;9.43;100.00;99027.09;5034030;28;20254;-72
2023/10/28 04:40:59;;;;;;;17.87;14.93;;;10.10;99.90;;;9.41;100.00;99024.63;5033981;28;20305;-72
2023/10/28 04:43:27;;;;;;;17.50;13.37;;;10.10;99.90;;;9.41;100.00;99029.16;5033942;28;20207;-72
2023/10/28 04:45:56;;;;;;;21.90;14.70;;;10.00;99.90;;;9.38;100.00;99033.03;5033869;28;20230;-72
2023/10/28 04:48:27;;;;;;;15.73;13.57;;;10.00;99.90;;;9.37;100.00;99022.53;5033874;28;20287;-72
2023/10/28 04:50:55;;;;;;;16.80;13.80;;;10.00;99.90;;;9.34;100.00;99031.78;5033876;28;20298;-72
2023/10/28 04:53:23;;;;;;;16.27;12.90;;;10.00;99.90;;;9.34;100.00;99026.44;5033820;28;20234;-72
2023/10/28 04:55:52;;;;;;;17.87;12.80;;;9.90;99.90;;;9.36;100.00;99029.72;5033701;28;20222;-72
2023/10/28 04:58:20;;;;;;;15.80;12.83;;;10.00;99.90;;;9.42;100.00;99022.78;5033689;28;20281;-72
2023/10/28 05:00:48;;;;;;;17.47;13.50;;;10.10;99.90;;;9.42;100.00;99025.44;5033690;28;20242;-72
2023/10/28 05:03:18;;;;;;;17.70;13.87;;;10.10;99.90;;;9.41;100.00;99016.63;5033635;28;20207;-73
2023/10/28 05:05:48;;;;;;;16.20;12.70;;;10.10;99.90;;;9.38;100.00;99032.22;5033261;28;20231;-72
2023/10/28 05:08:17;;;;;;;15.23;12.43;;;10.00;99.90;;;9.38;100.00;99027.72;5033609;28;20327;-72
2023/10/28 05:10:45;;;;;;;17.50;13.43;;;10.00;99.90;;;9.38;100.00;99027.72;5033565;28;20214;-72
2023/10/28 05:13:13;;;;;;;15.10;12.90;;;10.00;99.90;;;9.39;100.00;99029.34;5033214;28;20269;-72
2023/10/28 05:15:41;;;;;;;15.43;12.07;;;10.00;99.90;;;9.39;100.00;99032.00;5032826;28;20721;-72
2023/10/28 05:18:09;;;;;;;17.07;12.63;;;10.00;99.90;;;9.38;100.00;99032.22;5033432;28;20317;-72
2023/10/28 05:20:39;;;;;;;18.47;12.43;;;10.00;99.90;;;9.38;100.00;99033.03;5033506;28;20234;-72
2023/10/28 05:23:07;;;;;;;16.47;12.37;;;10.00;99.90;;;9.37;100.00;99030.56;5033132;28;20297;-72
2023/10/28 05:25:35;;;;;;;14.80;12.20;;;10.00;99.90;;;9.37;100.00;99035.91;5033353;28;20241;-72
2023/10/28 05:28:04;;;;;;;14.83;12.07;;;10.00;99.90;;;9.37;100.00;99038.56;5033411;28;20298;-72
2023/10/28 05:30:32;;;;;;;14.63;11.73;;;10.00;99.90;;;9.36;100.00;99045.75;5033070;28;20301;-72
2023/10/28 05:33:00;;;;;;;14.97;11.47;;;10.00;99.90;;;9.37;100.00;99042.06;5033381;28;20237;-72
2023/10/28 05:35:30;;;;;;;14.73;12.37;;;10.00;99.90;;;9.37;100.00;99044.75;5033269;28;20231;-72
2023/10/28 05:38:00;;;;;;;15.07;12.00;;;10.00;99.90;;;9.37;100.00;99047.41;5033249;28;20207;-72
2023/10/28 05:40:28;;;;;;;18.53;11.27;;;10.00;99.90;;;9.37;100.00;99050.09;5033264;28;20209;-72
2023/10/28 05:42:56;;;;;;;14.30;11.00;;;10.00;99.90;;;9.38;100.00;99053.59;5033273;28;20211;-72
2023/10/28 05:45:24;;;;;;;15.63;11.73;;;10.00;99.90;;;9.37;100.00;99047.41;5033199;28;20317;-72
2023/10/28 05:47:54;;;;;;;17.00;11.37;;;10.00;99.90;;;9.37;100.00;99052.75;5033232;28;20297;-72
2023/10/28 05:50:22;;;;;;;14.27;10.80;;;10.00;99.90;;;9.37;100.00;99055.41;5033221;28;20203;-72
2023/10/28 05:52:50;;;;;;;13.20;10.30;;;10.00;99.90;;;9.38;100.00;99050.91;5033205;28;20210;-72
2023/10/28 05:55:20;;;;;;;14.20;10.57;;;10.00;99.90;;;9.39;100.00;99055.22;5033101;28;20227;-72
2023/10/28 05:57:48;;;;;;;14.20;10.83;;;10.00;99.90;;;9.37;100.00;99055.41;5033150;28;20207;-72
2023/10/28 06:00:17;;;;;;;13.10;10.10;;;10.10;99.90;;;9.39;100.00;99063.22;5033053;28;20317;-72
2023/10/28 06:02:45;;;;;;;13.53;10.27;;;10.10;99.90;;;9.39;100.00;99066.72;5033133;28;20290;-72
2023/10/28 06:05:14;;;;;;;10.60;9.43;;;10.10;99.90;;;9.40;100.00;99067.56;5033021;28;20262;-72
2023/10/28 06:07:47;;;;;;;14.10;9.73;;;10.10;99.90;;;9.40;100.00;99073.72;5033042;28;20209;-72
2023/10/28 06:10:16;;;;;;;13.73;8.97;;;10.10;99.90;;;9.34;100.00;99079.84;5033039;28;20191;-72
2023/10/28 06:12:45;;;;;;;12.03;8.73;;;10.00;99.90;;;9.35;100.00;99080.69;5032581;28;20265;-72
2023/10/28 06:15:14;;;;;;;11.73;9.10;;;10.00;99.90;;;9.36;100.00;99083.13;5032888;28;20242;-73
2023/10/28 06:17:45;;;;;;;11.20;8.20;;;10.00;99.90;;;9.36;100.00;99088.47;5032651;28;20191;-73
2023/10/28 06:20:14;;;;;;;11.30;8.47;;;10.00;99.90;;;9.37;100.00;99090.16;5032525;28;20566;-72
2023/10/28 06:22:42;;;;;;;11.20;8.03;;;10.00;99.90;;;9.37;100.00;99087.47;5032921;28;20202;-72
2023/10/28 06:25:10;;;;;;;12.03;8.40;;;10.00;99.90;;;9.37;100.00;99086.66;5033373;28;20226;-72
2023/10/28 06:27:38;;;;;;;10.57;7.70;;;10.00;99.90;;;9.37;100.00;99084.81;5033209;28;20242;-72
2023/10/28 06:30:11;;;;;;;9.53;7.37;;;10.10;99.90;;;9.38;100.00;99091.81;5036448;28;20206;-72
2023/10/28 06:32:40;;;;;;;9.60;6.97;;;10.10;99.90;;;9.39;100.00;99098.78;5036137;28;20187;-72
2023/10/28 06:35:09;;;;;;;11.00;6.67;;;10.00;99.90;;;9.38;100.00;99099.00;5036284;28;20231;-72
2023/10/28 06:37:39;;;;;;;10.63;6.67;;;10.10;99.90;;;9.39;100.00;99101.44;5035989;28;20668;-72
2023/10/28 06:40:10;;;;;;;8.70;6.00;;;10.10;99.90;;;9.41;100.00;99111.94;5036253;28;20207;-72
2023/10/28 06:42:38;;;;;;;8.83;6.03;;;10.10;99.90;;;9.41;100.00;99112.78;5035952;28;20642;-72
2023/10/28 06:45:10;;;;;;;8.10;6.07;;;10.10;99.90;;;9.41;100.00;99110.13;5036112;28;20222;-72
2023/10/28 06:47:38;;;;;;;8.40;5.73;;;10.10;99.90;;;9.43;100.00;99110.75;5036171;28;20187;-72
2023/10/28 06:50:08;;;;;;;9.33;5.90;;;10.10;99.90;;;9.43;100.00;99110.75;5035808;28;20665;-72
2023/10/28 06:52:37;;;;;;;9.57;5.87;;;10.10;99.90;;;9.43;100.00;99110.75;5036058;28;20206;-72
2023/10/28 06:55:06;;;;;;;9.43;5.67;;;10.10;99.90;;;9.45;100.00;99115.91;5035952;28;20284;-72
2023/10/28 06:57:34;;;;;;;7.80;5.47;;;10.10;99.90;;;9.44;100.00;99120.41;5035962;28;20257;-72
2023/10/28 07:00:04;;;;;;;8.13;5.50;;;10.10;99.90;;;9.46;100.00;99120.19;5035830;28;20285;-72
2023/10/28 07:02:36;;;;;;;9.03;5.40;;;10.20;99.90;;;9.46;100.00;99120.19;5035579;28;20191;-72
2023/10/28 07:05:06;;;;;;;8.13;5.53;;;10.20;99.90;;;9.46;100.00;99123.69;5035740;28;20229;-72
2023/10/28 07:07:34;;;;;;;10.63;5.60;;;10.10;99.90;;;9.47;100.00;99127.22;5036547;28;20242;-72
2023/10/28 07:10:03;;;;;;;5.83;4.70;;;10.10;99.90;;;9.47;100.00;99133.38;5035452;28;20772;-72
2023/10/28 07:12:32;;;;;;;7.57;5.00;;;10.20;99.90;;;9.48;100.00;99135.03;5035244;28;20260;-72
2023/10/28 07:15:00;;;;;;;11.77;5.17;;;10.20;99.90;;;9.49;100.00;99135.84;5035571;28;20218;-73
2023/10/28 07:17:29;;;;;;;8.47;5.30;;;10.20;99.90;;;9.49;100.00;99139.34;5035275;28;20202;-73
2023/10/28 07:19:59;;;;;;;8.13;5.47;;;10.20;99.90;;;9.50;100.00;99141.00;5035530;28;20322;-73
2023/10/28 07:22:27;;;;;;;6.03;5.07;;;10.20;99.90;;;9.50;100.00;99133.00;5035444;28;20207;-73
2023/10/28 07:24:56;;;;;;;9.40;5.13;;;10.20;99.90;;;9.51;100.00;99140.00;5035434;28;20214;-73
2023/10/28 07:27:24;;;;;;;9.23;4.87;;;10.20;99.90;;;9.53;100.00;99153.16;5035444;28;20211;-73
2023/10/28 07:29:55;;;;;;;9.53;5.30;;;10.20;99.90;;;9.51;100.00;99150.69;5035372;28;20203;-73
2023/10/28 07:32:23;;;;;;;6.37;3.90;;;10.20;99.90;;;9.52;100.00;99156.84;5035322;28;20203;-73
2023/10/28 07:34:51;;;;;;;8.60;4.10;;;10.20;99.90;;;9.54;100.00;99154.81;5034906;28;20699;-73
2023/10/28 07:37:21;;;;;;;8.90;4.60;;;10.20;99.90;;;9.55;100.00;99157.31;5035199;28;20230;-73
2023/10/28 07:39:49;;;;;;;6.37;4.50;;;10.20;99.90;;;9.56;100.00;99164.28;5034908;28;20649;-73
2023/10/28 07:42:18;;;;;;;8.13;4.90;;;10.30;99.90;;;9.56;100.00;99168.78;5034796;28;20211;-73
2023/10/28 07:44:46;;;;;;;7.63;4.73;;;10.20;99.90;;;9.57;100.00;99171.28;5034665;28;20657;-73
2023/10/28 07:47:15;;;;;;;8.93;4.50;;;10.30;99.90;;;9.57;100.00;99173.13;5034691;28;20257;-72
2023/10/28 07:49:43;;;;;;;7.60;4.90;;;10.30;99.90;;;9.57;100.00;99176.63;5034985;28;20297;-72
2023/10/28 07:52:12;;;;;;;7.77;4.77;;;10.30;99.90;;;9.59;100.00;99187.09;5034941;28;20233;-72
2023/10/28 07:54:42;;;;;;;7.50;4.30;;;10.30;99.90;;;9.55;100.00;99181.34;5034486;28;20298;-72
2023/10/28 07:57:11;;;;;;;7.30;4.27;;;10.30;99.90;;;9.59;100.00;99184.44;5034527;28;20191;-72
2023/10/28 07:59:39;;;;;;;6.17;4.03;;;10.30;99.90;;;9.58;100.00;99183.63;5034772;28;20234;-72
2023/10/28 08:02:08;;;;;;;8.50;4.37;;;10.30;99.90;;;9.60;100.00;99188.75;5034677;28;20214;-72
2023/10/28 08:04:36;;;;;;;8.53;4.17;;;10.30;99.90;;;9.61;100.00;99187.75;5034359;28;20629;-72
2023/10/28 08:07:05;;;;;;;5.87;4.23;;;10.30;99.90;;;9.62;100.00;99200.91;5034511;28;20237;-72
2023/10/28 08:09:34;;;;;;;8.30;4.93;;;10.30;99.90;;;9.60;100.00;99192.25;5034305;28;20211;-72
2023/10/28 08:12:05;;;;;;;6.83;4.27;;;10.30;99.90;;;9.57;100.00;99198.00;5034372;28;20246;-72
2023/10/28 08:14:34;;;;;;;11.57;5.47;;;10.30;99.90;;;9.55;100.00;99205.38;5034507;28;20187;-72
2023/10/28 08:17:05;;;;;;;7.13;4.97;;;10.30;99.90;;;9.56;100.00;99208.84;5034363;28;20231;-72
2023/10/28 08:19:33;;;;;;;13.70;5.00;;;10.20;99.90;;;9.57;100.00;99203.34;5034109;28;20667;-72
2023/10/28 08:22:02;;;;;;;10.80;5.40;;;10.20;99.90;;;9.56;100.00;99204.34;5034363;28;20212;-72
2023/10/28 08:24:30;;;;;;;11.73;5.17;;;10.30;99.90;;;9.57;100.00;99213.19;5034320;28;20353;-72
2023/10/28 08:26:58;;;;;;;9.90;4.80;;;10.30;99.90;;;9.56;100.00;99212.38;5034270;28;20273;-72
2023/10/28 08:29:28;;;;;;;6.97;4.53;;;10.30;99.90;;;9.59;100.00;99211.97;5034211;28;20217;-72
2023/10/28 08:31:57;;;;;;;8.80;4.30;;;10.30;99.90;;;9.60;100.00;99219.00;5033890;28;20652;-72
2023/10/28 08:34:26;;;;;;;9.50;4.97;;;10.30;99.90;;;9.61;100.00;99215.31;5034133;28;20207;-72
2023/10/28 08:36:54;;;;;;;8.20;4.70;;;10.30;99.90;;;9.62;100.00;99222.28;5033548;28;20273;-72
2023/10/28 08:39:23;;;;;;;7.30;3.97;;;10.30;99.90;;;9.64;100.00;99220.25;5033655;28;20721;-72
2023/10/28 08:41:52;;;;;;;8.70;4.40;;;10.40;99.90;;;9.66;100.00;99230.75;5033921;28;20222;-72
2023/10/28 08:44:27;;;;;;;7.40;4.20;;;10.40;99.90;;;9.68;100.00;99228.72;5033913;28;20210;-72
2023/10/28 08:46:57;;;;;;;5.33;4.13;;;10.40;99.90;;;9.69;100.00;99223.16;5033902;28;20598;-72
2023/10/28 08:49:28;;;;;;;4.10;3.37;;;10.40;99.90;;;9.72;100.00;99222.00;5033947;28;20253;-72
2023/10/28 08:52:02;;;;;;;10.00;4.30;;;10.40;99.90;;;9.73;100.00;99218.28;5033383;28;20195;-72
2023/10/28 08:54:35;;;;;;;5.90;4.03;;;10.40;99.90;;;9.76;100.00;99217.09;5033768;28;20187;-72
2023/10/28 08:57:05;;;;;;;6.27;4.10;;;10.40;99.90;;;9.77;100.00;99218.72;5034826;28;20544;-72
2023/10/28 08:59:33;;;;;;;5.27;3.47;;;10.50;99.90;;;9.79;100.00;99227.38;5033751;28;20687;-72
2023/10/28 09:02:08;;;;;;;7.33;4.00;;;10.50;99.90;;;9.80;100.00;99229.84;5033363;28;20233;-72
2023/10/28 09:04:36;;;;;;;5.30;3.67;;;10.50;99.90;;;9.82;100.00;99232.34;5033446;28;20198;-72
2023/10/28 09:07:05;;;;;;;7.27;3.87;;;10.50;99.90;;;9.84;100.00;99235.66;5033615;28;20258;-72
2023/10/28 09:09:37;;;;;;;5.07;3.57;;;10.50;99.90;;;9.86;100.00;99241.66;5033635;28;20624;-72
2023/10/28 09:12:07;;;;;;;7.97;3.70;;;10.60;99.90;;;9.86;100.00;99236.31;5033144;28;20211;-72
2023/10/28 09:14:35;;;;;;;8.33;4.13;;;10.60;99.90;;;9.88;100.00;99247.63;5033599;28;20218;-72
2023/10/28 09:17:05;;;;;;;5.40;4.10;;;10.60;99.90;;;9.90;100.00;99245.56;5033158;28;20712;-72
2023/10/28 09:19:33;;;;;;;7.63;4.70;;;10.60;99.90;;;9.92;100.00;99256.91;5033500;28;20210;-72
2023/10/28 09:22:02;;;;;;;10.60;4.20;;;10.60;99.90;;;9.94;100.00;99246.84;5033408;28;20261;-72
2023/10/28 09:24:32;;;;;;;6.13;3.97;;;10.60;99.90;;;9.96;100.00;99255.50;5033004;28;20582;-72
2023/10/28 09:27:00;;;;;;;5.43;3.60;;;10.60;99.90;;;9.97;100.00;99254.47;5032924;28;20704;-72
2023/10/28 09:29:30;;;;;;;8.00;4.03;;;10.70;99.90;;;9.98;100.00;99253.47;5033354;28;20211;-72
2023/10/28 09:32:08;;;;;;;5.33;3.90;;;10.70;99.90;;;10.00;100.00;99259.47;5033371;28;20211;-72
2023/10/28 09:34:38;;;;;;;5.73;4.00;;;10.70;99.90;;;10.00;100.00;99264.81;5033400;28;20194;-72
2023/10/28 09:37:07;;;;;;;7.33;4.40;;;10.70;99.90;;;10.01;100.00;99263.75;5033273;28;20222;-72
2023/10/28 09:39:38;;;;;;;5.40;4.00;;;10.70;99.90;;;10.03;100.00;99275.13;5033300;28;20229;-72
2023/10/28 09:42:06;;;;;;;6.60;3.73;;;10.70;99.90;;;10.01;100.00;99277.97;5032868;28;20262;-72
2023/10/28 09:44:35;;;;;;;6.20;3.83;;;10.70;99.90;;;10.03;100.00;99283.13;5032926;28;20213;-72
2023/10/28 09:47:07;;;;;;;8.30;3.67;;;10.70;99.90;;;10.03;100.00;99277.78;5032810;28;20735;-72
2023/10/28 09:49:45;;;;;;;4.80;3.50;;;10.70;99.90;;;10.06;100.00;99280.06;5033287;28;20210;-72
2023/10/28 09:52:19;;;;;;;5.87;4.10;;;10.80;99.90;;;10.06;100.00;99274.72;5032921;28;20198;-72
2023/10/28 09:54:54;;;;;;;5.70;3.37;;;10.70;99.90;;;10.08;100.00;99270.84;5033154;28;20191;-72
2023/10/28 09:57:22;;;;;;;5.10;3.97;;;10.80;99.90;;;10.10;100.00;99281.34;5033187;28;20290;-72
2023/10/28 09:59:54;;;;;;;5.43;4.50;;;10.80;99.90;;;10.13;100.00;99279.13;5033137;28;20202;-72
2023/10/28 10:02:39;;;;;;;4.37;3.90;;;10.80;99.90;;;10.15;100.00;99276.25;5032727;28;20218;-72
2023/10/28 10:05:18;;;;;;;7.27;4.50;;;10.90;99.90;;;10.19;100.00;99282.88;5036613;28;20786;-72
2023/10/28 10:07:47;;;;;;;5.13;4.10;;;10.90;99.90;;;10.21;100.00;99278.16;5036679;28;20646;-72
2023/10/28 10:10:16;;;;;;;6.37;4.80;;;10.90;99.90;;;10.25;100.00;99275.94;5036883;28;20241;-72
2023/10/28 10:12:45;;;;;;;7.07;4.57;;;11.00;99.90;;;10.28;100.00;99270.19;5036363;28;20211;-72
2023/10/28 10:15:14;;;;;;;8.23;5.20;;;11.00;99.90;;;10.32;100.00;99277.63;5036699;28;20222;-72
2023/10/28 10:17:59;;;;;;;5.17;4.03;;;11.00;99.90;;;10.34;100.00;99275.63;5036446;28;20548;-72